ADDS METAR Data INFO
IDs: Format: Raw Decoded Include TAF

Data at: 2303 UTC 16 Jan 2018

KD60 162255Z AUTO 20005KT 10SM CLR M14/M20 A3024 RMK AO2
KD60 162235Z AUTO 00000KT 10SM CLR M14/M20 A3025 RMK AO2
KD60 162215Z AUTO 00000KT 10SM CLR M14/M20 A3026 RMK AO2
KD60 162155Z AUTO 17004KT 10SM CLR M14/M20 A3026 RMK AO2
KD60 162135Z AUTO 15005KT 10SM CLR M13/M20 A3028 RMK AO2
KD60 162115Z AUTO 19005KT 10SM CLR M13/M20 A3028 RMK AO2
KD60 162055Z AUTO 18006KT 10SM CLR M13/M20 A3029 RMK AO2
KD60 162035Z AUTO 19005KT 10SM CLR M14/M21 A3030 RMK AO2
KD60 162015Z AUTO 18008KT 10SM CLR M14/M21 A3030 RMK AO2
KD60 161955Z AUTO 16005KT 10SM CLR M13/M21 A3031 RMK AO2
KD60 161935Z AUTO 21008KT 10SM CLR M14/M22 A3032 RMK AO2
KD60 161915Z AUTO 22011KT 10SM CLR M15/M22 A3031 RMK AO2
KD60 161855Z AUTO 22011KT 10SM CLR M14/M22 A3033 RMK AO2
KD60 161835Z AUTO 22009KT 10SM CLR M15/M22 A3035 RMK AO2
KD60 161815Z AUTO 21004KT 10SM CLR M17/M23 A3037 RMK AO2
KD60 161755Z AUTO 19007KT 10SM CLR M18/M23 A3038 RMK AO2
KD60 161735Z AUTO 17004KT 10SM CLR M19/M24 A3040 RMK AO2
KD60 161715Z AUTO 20007KT 10SM CLR M21/M24 A3040 RMK AO2
KD60 161655Z AUTO 18008KT 10SM CLR M21/M25 A3040 RMK AO2
KD60 161635Z AUTO 16007KT 10SM CLR M21/M25 A3041 RMK AO2
KD60 161615Z AUTO 17004G10KT 10SM CLR M22/M26 A3042 RMK AO2
KD60 161555Z AUTO 18010KT 10SM CLR M22/M26 A3042 RMK AO2
KD60 161535Z AUTO 21006KT 10SM CLR M22/M26 A3044 RMK AO2
KD60 161515Z AUTO 00000KT 10SM CLR M23/M26 A3046 RMK AO2
KD60 161455Z AUTO 16004KT 10SM CLR M23/M26 A3046 RMK AO2
KD60 161435Z AUTO 23005KT 10SM CLR M23/M26 A3046 RMK AO2
KD60 161415Z AUTO 17007KT 10SM CLR M23/M26 A3048 RMK AO2
KD60 161355Z AUTO 11007KT 10SM CLR M23/M25 A3049 RMK AO2
KD60 161335Z AUTO 00000KT 10SM CLR M22/M25 A3050 RMK AO2
KD60 161315Z AUTO 20005KT 10SM CLR M23/M25 A3050 RMK AO2
KD60 161255Z AUTO 00000KT 10SM CLR M22/M25 A3051 RMK AO2
KD60 161235Z AUTO 21006KT 10SM CLR M22/M25 A3052 RMK AO2
KD60 161155Z AUTO 21007KT 10SM CLR M22/M25 A3053 RMK AO2
KD60 161035Z AUTO 20006KT 10SM CLR M24/M26 A3060 RMK AO2
KD60 160935Z AUTO 21007KT 10SM CLR M26/M28 A3063 RMK AO2
KD60 160855Z AUTO 00000KT 10SM CLR M27/M29 A3064 RMK AO2
KD60 160735Z AUTO 00000KT 10SM CLR M27/M29 A3067 RMK AO2
KD60 160715Z AUTO 23003KT 10SM CLR M27/M29 A3068 RMK AO2
KD60 160615Z AUTO 19004KT 10SM CLR M27/M29 A3071 RMK AO2
KD60 160555Z AUTO 20007KT 10SM CLR M28/M30 A3072 RMK AO2
KD60 160535Z AUTO 22006KT 10SM CLR M28/M30 A3072 RMK AO2
KD60 160515Z AUTO 22006KT 10SM CLR M28/M30 A3072 RMK AO2
KD60 160455Z AUTO 22007KT 10SM CLR M28/M30 A3072 RMK AO2
KD60 160435Z AUTO 22008KT 10SM CLR M28/M31 A3073 RMK AO2
KD60 160415Z AUTO 24006KT 10SM CLR M28/M30 A3074 RMK AO2
KD60 160355Z AUTO 23005KT 10SM CLR M28/M30 A3074 RMK AO2
KD60 160335Z AUTO 24004KT 10SM CLR M27/M29 A3074 RMK AO2
KD60 160315Z AUTO 22007KT 10SM CLR M27/M29 A3075 RMK AO2
KD60 160255Z AUTO 25005KT 10SM CLR M28/M30 A3075 RMK AO2
KD60 160235Z AUTO 25006KT 10SM CLR M28/M30 A3076 RMK AO2
KD60 160215Z AUTO 24004KT 10SM CLR M28/M30 A3077 RMK AO2
KD60 160155Z AUTO 26004KT 10SM CLR M28/M30 A3077 RMK AO2
KD60 160135Z AUTO 25006KT 10SM CLR M28/M30 A3078 RMK AO2
KD60 160115Z AUTO 22006KT 10SM CLR M27/M29 A3078 RMK AO2
KD60 160055Z AUTO 00000KT 10SM CLR M27/M29 A3079 RMK AO2
KD60 160035Z AUTO 00000KT 10SM CLR M26/M28 A3079 RMK AO2
KD60 160015Z AUTO 26004KT 10SM CLR M26/M28 A3079 RMK AO2
KD60 152355Z AUTO 28003KT 10SM CLR M25/M27 A3080 RMK AO2
KD60 152335Z AUTO 28006KT 10SM CLR M25/M28 A3080 RMK AO2
KD60 152315Z AUTO 28006KT 10SM CLR M24/M27 A3080 RMK AO2
KD60 152255Z AUTO 27006KT 10SM CLR M23/M26 A3080 RMK AO2
KD60 152235Z AUTO 27008KT 10SM CLR M22/M26 A3081 RMK AO2
KD60 152215Z AUTO 29007KT 10SM CLR M22/M26 A3080 RMK AO2
KD60 152155Z AUTO 27008KT 10SM CLR M22/M26 A3080 RMK AO2
KD60 152135Z AUTO 28008KT 10SM CLR M22/M26 A3080 RMK AO2
KD60 152115Z AUTO 27009KT 10SM CLR M22/M26 A3079 RMK AO2
KD60 152055Z AUTO 26007KT 10SM CLR M22/M26 A3079 RMK AO2
KD60 152035Z AUTO 25006KT 10SM CLR M22/M26 A3079 RMK AO2
KD60 152015Z AUTO 24005KT 10SM CLR M22/M26 A3080 RMK AO2
KD60 151955Z AUTO 00000KT 10SM CLR M22/M26 A3081 RMK AO2
KD60 151935Z AUTO 31004KT 10SM CLR M22/M26 A3081 RMK AO2
KD60 151915Z AUTO 30005KT 10SM CLR M23/M26 A3082 RMK AO2
KD60 151855Z AUTO 31009KT 10SM CLR M23/M26 A3083 RMK AO2
KD60 151835Z AUTO 31008KT 10SM CLR M23/M27 A3082 RMK AO2
KD60 151815Z AUTO 31005KT 10SM CLR M24/M27 A3083 RMK AO2
KD60 151755Z AUTO 32007KT 10SM CLR M24/M27 A3084 RMK AO2
KD60 151735Z AUTO 31004KT 10SM CLR M24/M27 A3084 RMK AO2
KD60 151715Z AUTO 28004KT 10SM CLR M25/M28 A3084 RMK AO2
KD60 151655Z AUTO 31008KT 10SM CLR M26/M28 A3083 RMK AO2
KD60 151635Z AUTO 29007KT 10SM CLR M26/M29 A3081 RMK AO2
KD60 151555Z AUTO 28006KT 10SM CLR M28/M30 A3080 RMK AO2
KD60 151535Z AUTO 24005KT 10SM CLR M28/M31 A3080 RMK AO2
KD60 151515Z AUTO 31006KT 10SM CLR M28/M30 A3079 RMK AO2
KD60 151455Z AUTO 31007KT 10SM CLR M28/M30 A3079 RMK AO2
KD60 151435Z AUTO 31006KT 10SM CLR M27/M30 A3079 RMK AO2
KD60 151415Z AUTO 33009KT 10SM CLR M27/M29 A3078 RMK AO2
KD60 151355Z AUTO 32009KT 10SM CLR M27/M29 A3076 RMK AO2
KD60 151335Z AUTO 32010KT 10SM FEW003 M27/M29 A3075 RMK AO2
KD60 151315Z AUTO 33005KT 10SM CLR M27/M29 A3075 RMK AO2
KD60 151255Z AUTO 35011G17KT 10SM CLR M25/M28 A3074 RMK AO2
KD60 151235Z AUTO 35013KT 10SM CLR M25/M28 A3073 RMK AO2
KD60 151215Z AUTO 35015KT 10SM CLR M25/M27 A3071 RMK AO2
KD60 151155Z AUTO 36014KT 10SM CLR M25/M27 A3070 RMK AO2
KD60 151135Z AUTO 35013KT 10SM CLR M25/M27 A3069 RMK AO2
KD60 151115Z AUTO 34012KT 10SM CLR M25/M27 A3068 RMK AO2